WABB/BIK METAR and TAF weather

Enter ICAO airport designator
Station Type Date Time Source
WABB METAR 2019/10/21 02:00 UTC NOAA

WABB 210200Z 15003KT 9000 -RA FEW017CB SCT018 OVC100 26/25 Q1010


Station Type Date Time Source
WABB Decoded METAR 2019/10/21 02:00 UTC NOAA

Biak / Mokmer, Indonesia (WABB) 01-11S 136-07E 11M
Oct 20, 2019 - 10:00 PM EDT / 2019.10.21 0200 UTC
Wind: from the SSE (150 degrees) at 3 MPH (3 KT):0
Visibility: 5 mile(s):0
Sky conditions: overcast
Weather: light rain; Cumulonimbus clouds observed
Temperature: 78 F (26 C)
Dew Point: 77 F (25 C)
Relative Humidity: 94%
Pressure (altimeter): 29.83 in. Hg (1010 hPa)
ob: WABB 210200Z 15003KT 9000 -RA FEW017CB SCT018 OVC100 26/25 Q1010
cycle: 2

Station Type Date Time Source
WABB TAF 2019/10/20 18:09 UTC NOAA

TAF WABB 201700Z 2018/2200 00000KT 9999 SCT018
BECMG 2022/2100 11005KT

Example: see airport list